Time;durP1;ratioP1;P1;durP2;ratioP2;P2;SDS_P1;SDS_P2;PMS_P1;PMS_P2;Temp;Humidity;BMP_temperature;BMP_pressure;BME280_temperature;BME280_humidity;BME280_pressure;Samples;Min_cycle;Max_cycle;Signal;HPM_P1;HPM_P2
2024/01/26 00:02:17;;;;;;;3.92;2.35;;;;;;;;;;5014735;28;20042;-31
2024/01/26 00:04:43;;;;;;;2.95;2.42;;;;;;;;;;5015525;28;20469;-30
2024/01/26 00:07:09;;;;;;;4.00;2.08;;;;;;;;;;5014950;28;20041;-29
2024/01/26 00:09:35;;;;;;;5.35;2.05;;;;;;;;;;5014980;28;20588;-29
2024/01/26 00:12:01;;;;;;;4.20;2.33;;;;;;;;;;5014838;28;20034;-30
2024/01/26 00:14:27;;;;;;;4.63;2.15;;;;;;;;;;5014819;28;20313;-39
2024/01/26 00:16:54;;;;;;;2.50;2.05;;;;;;;;;;5014853;28;20026;-31
2024/01/26 00:19:20;;;;;;;4.40;1.85;;;;;;;;;;5017214;28;20152;-31
2024/01/26 00:21:46;;;;;;;3.42;2.30;;;;;;;;;;5021296;28;20093;-29
2024/01/26 00:24:12;;;;;;;3.33;1.88;;;;;;;;;;5022088;28;20037;-31
2024/01/26 00:26:38;;;;;;;3.53;2.20;;;;;;;;;;5020355;28;20460;-30
2024/01/26 00:29:05;;;;;;;3.03;1.58;;;;;;;;;;5021225;28;20029;-31
2024/01/26 00:31:31;;;;;;;3.72;1.77;;;;;;;;;;5021299;28;20030;-29
2024/01/26 00:33:57;;;;;;;4.95;1.95;;;;;;;;;;5021432;28;20025;-31
2024/01/26 00:36:23;;;;;;;2.83;1.77;;;;;;;;;;5020212;28;20048;-29
2024/01/26 00:38:49;;;;;;;2.17;1.90;;;;;;;;;;5022245;28;20340;-30
2024/01/26 00:41:16;;;;;;;3.75;1.55;;;;;;;;;;5021230;28;20083;-30
2024/01/26 00:43:42;;;;;;;2.58;1.77;;;;;;;;;;5021122;28;20041;-30
2024/01/26 00:46:08;;;;;;;4.95;2.20;;;;;;;;;;5021189;28;20121;-29
2024/01/26 00:48:34;;;;;;;3.97;2.45;;;;;;;;;;5021132;28;20168;-31
2024/01/26 00:51:01;;;;;;;3.78;1.92;;;;;;;;;;5021366;28;20061;-29
2024/01/26 00:53:27;;;;;;;7.00;1.92;;;;;;;;;;5021337;28;20372;-29
2024/01/26 00:55:53;;;;;;;2.17;1.50;;;;;;;;;;5021520;28;20036;-31
2024/01/26 00:58:19;;;;;;;2.83;1.70;;;;;;;;;;5021225;28;20457;-30
2024/01/26 01:00:46;;;;;;;3.72;1.58;;;;;;;;;;5020970;28;20084;-30
2024/01/26 01:03:12;;;;;;;4.35;2.47;;;;;;;;;;5020747;28;20057;-30
2024/01/26 01:05:39;;;;;;;3.13;1.80;;;;;;;;;;5021273;28;20026;-29
2024/01/26 01:08:05;;;;;;;6.85;1.80;;;;;;;;;;5020938;28;20057;-30
2024/01/26 01:10:31;;;;;;;3.30;1.80;;;;;;;;;;5020936;28;20030;-30
2024/01/26 01:12:57;;;;;;;2.90;2.10;;;;;;;;;;5020767;28;20101;-30
2024/01/26 01:15:24;;;;;;;3.50;1.92;;;;;;;;;;5019844;28;20041;-30
2024/01/26 01:17:50;;;;;;;2.40;1.88;;;;;;;;;;5020922;28;20040;-38
2024/01/26 01:20:16;;;;;;;4.32;1.63;;;;;;;;;;5021123;28;20033;-28
2024/01/26 01:22:42;;;;;;;4.53;2.85;;;;;;;;;;5020763;28;20033;-31
2024/01/26 01:25:12;;;;;;;4.57;2.53;;;;;;;;;;5021308;28;20022;-30
2024/01/26 01:27:38;;;;;;;2.53;1.48;;;;;;;;;;5021582;28;20099;-29
2024/01/26 01:30:05;;;;;;;5.53;2.05;;;;;;;;;;5020639;28;20029;-29
2024/01/26 01:32:31;;;;;;;2.30;1.70;;;;;;;;;;5016804;28;20041;-31
2024/01/26 01:34:57;;;;;;;2.85;2.13;;;;;;;;;;5017483;28;20051;-29
2024/01/26 01:37:24;;;;;;;5.43;2.33;;;;;;;;;;5017579;28;20025;-30
2024/01/26 01:39:50;;;;;;;1.77;1.48;;;;;;;;;;5017781;28;20029;-30
2024/01/26 01:42:16;;;;;;;3.15;2.13;;;;;;;;;;5017469;28;20032;-29
2024/01/26 01:44:43;;;;;;;2.63;2.00;;;;;;;;;;5017378;28;20026;-29
2024/01/26 01:47:13;;;;;;;4.20;1.90;;;;;;;;;;5017903;28;20306;-33
2024/01/26 01:49:39;;;;;;;4.05;1.50;;;;;;;;;;5017378;28;20515;-29
2024/01/26 01:52:07;;;;;;;3.33;1.88;;;;;;;;;;5017207;28;20402;-31
2024/01/26 01:54:33;;;;;;;2.00;1.80;;;;;;;;;;5017482;28;20060;-30
2024/01/26 01:57:03;;;;;;;4.78;1.65;;;;;;;;;;5017184;28;20101;-30
2024/01/26 01:59:30;;;;;;;3.10;2.03;;;;;;;;;;5017192;28;20026;-29
2024/01/26 02:01:56;;;;;;;6.38;2.38;;;;;;;;;;5017309;28;20066;-29
2024/01/26 02:04:22;;;;;;;1.80;1.30;;;;;;;;;;5016933;28;20158;-30
2024/01/26 02:06:55;;;;;;;3.60;2.15;;;;;;;;;;5017281;28;20022;-29
2024/01/26 02:09:21;;;;;;;3.85;2.03;;;;;;;;;;5017294;28;20029;-30
2024/01/26 02:11:47;;;;;;;2.97;1.60;;;;;;;;;;5017141;28;20068;-30
2024/01/26 02:14:13;;;;;;;2.88;2.13;;;;;;;;;;5016905;28;20026;-31
2024/01/26 02:16:39;;;;;;;2.10;1.73;;;;;;;;;;5016824;28;20359;-30
2024/01/26 02:19:06;;;;;;;1.98;1.50;;;;;;;;;;5017083;28;20405;-31
2024/01/26 02:21:32;;;;;;;5.15;2.33;;;;;;;;;;5017068;28;20384;-30
2024/01/26 02:23:58;;;;;;;2.20;1.63;;;;;;;;;;5016655;28;20364;-31
2024/01/26 02:26:24;;;;;;;3.45;1.45;;;;;;;;;;5016904;28;20194;-30
2024/01/26 02:28:50;;;;;;;1.90;1.70;;;;;;;;;;5016945;28;20026;-28
2024/01/26 02:31:16;;;;;;;2.92;1.67;;;;;;;;;;5016525;28;20044;-29
2024/01/26 02:33:42;;;;;;;1.58;1.38;;;;;;;;;;5016773;28;20356;-29
2024/01/26 02:36:09;;;;;;;2.60;1.92;;;;;;;;;;5016663;28;20022;-31
2024/01/26 02:38:35;;;;;;;2.17;1.98;;;;;;;;;;5016730;28;20026;-29
2024/01/26 02:41:01;;;;;;;1.73;1.27;;;;;;;;;;5016699;28;20094;-30
2024/01/26 02:43:27;;;;;;;2.97;1.67;;;;;;;;;;5016418;28;20101;-31
2024/01/26 02:45:53;;;;;;;3.05;1.50;;;;;;;;;;5016350;28;20026;-30
2024/01/26 02:48:23;;;;;;;3.42;2.13;;;;;;;;;;5016810;28;20345;-30
2024/01/26 02:50:49;;;;;;;3.38;2.10;;;;;;;;;;5016242;28;20103;-29
2024/01/26 02:53:15;;;;;;;3.70;1.90;;;;;;;;;;5015186;28;20457;-30
2024/01/26 02:55:41;;;;;;;2.95;1.52;;;;;;;;;;5016079;28;20468;-30
2024/01/26 02:58:08;;;;;;;1.77;1.58;;;;;;;;;;5016090;28;20030;-30
2024/01/26 03:00:34;;;;;;;2.72;1.85;;;;;;;;;;5015075;28;20060;-30
2024/01/26 03:03:00;;;;;;;2.00;1.80;;;;;;;;;;5015860;28;20088;-30
2024/01/26 03:05:26;;;;;;;2.55;1.40;;;;;;;;;;5015972;28;20021;-30
2024/01/26 03:07:52;;;;;;;2.25;1.50;;;;;;;;;;5015943;28;20036;-30
2024/01/26 03:10:18;;;;;;;2.80;1.92;;;;;;;;;;5014920;28;20483;-30
2024/01/26 03:12:44;;;;;;;2.15;1.70;;;;;;;;;;5015787;28;20497;-30
2024/01/26 03:15:10;;;;;;;2.92;1.67;;;;;;;;;;5015716;28;20026;-30
2024/01/26 03:17:36;;;;;;;1.80;1.58;;;;;;;;;;5015778;28;20022;-30
2024/01/26 03:20:03;;;;;;;2.17;1.60;;;;;;;;;;5015718;28;20088;-29
2024/01/26 03:22:29;;;;;;;1.98;1.50;;;;;;;;;;5015872;28;20111;-30
2024/01/26 03:24:55;;;;;;;2.38;1.50;;;;;;;;;;5014656;28;20053;-31
2024/01/26 03:27:21;;;;;;;2.10;1.90;;;;;;;;;;5015581;28;20101;-31
2024/01/26 03:29:47;;;;;;;2.00;1.48;;;;;;;;;;5015511;28;20414;-28
2024/01/26 03:32:13;;;;;;;2.10;1.52;;;;;;;;;;5015446;28;20029;-30
2024/01/26 03:34:40;;;;;;;1.48;1.33;;;;;;;;;;5015421;28;20065;-31
2024/01/26 03:37:06;;;;;;;2.55;1.38;;;;;;;;;;5014468;28;20033;-31
2024/01/26 03:39:32;;;;;;;1.70;1.17;;;;;;;;;;5015343;28;20168;-30
2024/01/26 03:41:59;;;;;;;2.30;1.20;;;;;;;;;;5016068;28;20092;-30
2024/01/26 03:44:25;;;;;;;2.05;1.45;;;;;;;;;;5015566;28;20100;-30
2024/01/26 03:46:51;;;;;;;2.80;1.80;;;;;;;;;;5015279;28;20122;-30
2024/01/26 03:49:17;;;;;;;2.30;1.88;;;;;;;;;;5015245;28;20037;-30
2024/01/26 03:51:45;;;;;;;1.45;1.35;;;;;;;;;;5015153;28;20018;-30
2024/01/26 03:54:11;;;;;;;2.00;1.67;;;;;;;;;;5014890;28;20036;-31
2024/01/26 03:56:37;;;;;;;3.28;1.77;;;;;;;;;;5014989;28;20022;-29
2024/01/26 03:59:04;;;;;;;3.28;1.80;;;;;;;;;;5015325;28;20026;-30
2024/01/26 04:01:30;;;;;;;2.33;1.80;;;;;;;;;;5015049;28;20053;-29
2024/01/26 04:03:56;;;;;;;1.60;1.33;;;;;;;;;;5014815;28;20037;-31
2024/01/26 04:06:23;;;;;;;2.58;1.73;;;;;;;;;;5015301;28;20487;-28
2024/01/26 04:08:49;;;;;;;1.98;1.67;;;;;;;;;;5015233;28;20113;-30
2024/01/26 04:11:16;;;;;;;2.30;1.83;;;;;;;;;;5015012;28;20098;-29
2024/01/26 04:13:42;;;;;;;1.65;1.55;;;;;;;;;;5014969;28;20030;-30
2024/01/26 04:16:08;;;;;;;1.85;1.52;;;;;;;;;;5014937;28;20038;-30
2024/01/26 04:18:34;;;;;;;2.17;1.40;;;;;;;;;;5013972;28;20045;-29
2024/01/26 04:21:00;;;;;;;2.65;1.70;;;;;;;;;;5014862;28;20041;-30
2024/01/26 04:23:26;;;;;;;1.27;1.17;;;;;;;;;;5014787;28;20026;-29
2024/01/26 04:25:52;;;;;;;2.45;1.70;;;;;;;;;;5014860;28;20361;-29
2024/01/26 04:28:19;;;;;;;2.65;1.60;;;;;;;;;;5014833;28;20036;-30
2024/01/26 04:30:45;;;;;;;1.88;1.50;;;;;;;;;;5015295;28;20119;-29
2024/01/26 04:33:11;;;;;;;2.17;1.63;;;;;;;;;;5014986;28;20026;-29
2024/01/26 04:35:37;;;;;;;2.10;1.30;;;;;;;;;;5014935;28;20034;-31
2024/01/26 04:38:05;;;;;;;3.55;1.55;;;;;;;;;;5015008;28;20033;-30
2024/01/26 04:40:32;;;;;;;2.22;1.25;;;;;;;;;;5014724;28;20026;-30
2024/01/26 04:42:58;;;;;;;1.85;1.50;;;;;;;;;;5014531;28;20026;-30
2024/01/26 04:45:24;;;;;;;1.48;1.38;;;;;;;;;;5013571;28;20448;-30
2024/01/26 04:47:50;;;;;;;2.70;1.95;;;;;;;;;;5013664;28;20038;-30
2024/01/26 04:50:16;;;;;;;1.90;1.23;;;;;;;;;;5014491;28;20457;-30
2024/01/26 04:52:42;;;;;;;1.52;1.42;;;;;;;;;;5014779;28;20026;-29
2024/01/26 04:55:09;;;;;;;2.00;1.80;;;;;;;;;;5014402;28;20055;-29
2024/01/26 04:57:35;;;;;;;2.20;1.45;;;;;;;;;;5014691;28;20045;-29
2024/01/26 05:00:01;;;;;;;2.92;1.67;;;;;;;;;;5014407;28;20053;-31
2024/01/26 05:02:28;;;;;;;3.15;1.45;;;;;;;;;;5014193;28;20037;-29
2024/01/26 05:04:54;;;;;;;2.28;1.38;;;;;;;;;;5013320;28;20113;-32
2024/01/26 05:07:22;;;;;;;3.58;2.17;;;;;;;;;;5017097;28;20107;-30
2024/01/26 05:09:48;;;;;;;3.45;1.85;;;;;;;;;;5018257;28;20033;-30
2024/01/26 05:12:14;;;;;;;2.70;1.60;;;;;;;;;;5017988;28;20022;-31
2024/01/26 05:14:40;;;;;;;1.55;1.42;;;;;;;;;;5018005;28;20097;-34
2024/01/26 05:17:06;;;;;;;3.55;2.00;;;;;;;;;;5017819;28;20018;-29
2024/01/26 05:19:33;;;;;;;1.83;1.40;;;;;;;;;;5018389;28;20045;-30
2024/01/26 05:21:59;;;;;;;1.45;1.30;;;;;;;;;;5016626;28;20125;-31
2024/01/26 05:24:25;;;;;;;1.63;1.52;;;;;;;;;;5017723;28;20029;-32
2024/01/26 05:26:51;;;;;;;2.33;1.83;;;;;;;;;;5017292;28;20053;-31
2024/01/26 05:29:17;;;;;;;1.70;1.60;;;;;;;;;;5017827;28;20100;-33
2024/01/26 05:31:43;;;;;;;2.13;1.83;;;;;;;;;;5017556;28;20040;-31
2024/01/26 05:34:10;;;;;;;2.70;1.17;;;;;;;;;;5017414;28;20026;-30
2024/01/26 05:36:43;;;;;;;2.95;1.55;;;;;;;;;;5017586;28;20127;-32
2024/01/26 05:39:10;;;;;;;2.92;1.48;;;;;;;;;;5017282;28;20445;-31
2024/01/26 05:41:36;;;;;;;3.38;2.38;;;;;;;;;;5017331;28;20100;-28
2024/01/26 05:44:02;;;;;;;1.48;1.27;;;;;;;;;;5017116;28;20037;-32
2024/01/26 05:46:28;;;;;;;1.63;1.33;;;;;;;;;;5017421;28;20037;-32
2024/01/26 05:48:56;;;;;;;2.00;1.30;;;;;;;;;;5017200;28;20033;-33
2024/01/26 05:51:22;;;;;;;2.00;1.38;;;;;;;;;;5016187;28;20113;-30
2024/01/26 05:53:49;;;;;;;1.65;1.33;;;;;;;;;;5017169;28;20098;-31
2024/01/26 05:56:15;;;;;;;2.08;1.60;;;;;;;;;;5017011;28;20049;-29
2024/01/26 05:58:42;;;;;;;1.58;1.00;;;;;;;;;;5017415;28;20069;-29
2024/01/26 06:01:08;;;;;;;2.25;1.40;;;;;;;;;;5017335;28;20022;-31
2024/01/26 06:03:34;;;;;;;3.00;2.00;;;;;;;;;;5017217;28;20485;-32
2024/01/26 06:06:00;;;;;;;1.92;1.70;;;;;;;;;;5017035;28;20033;-32
2024/01/26 06:08:26;;;;;;;1.52;1.42;;;;;;;;;;5017514;28;20036;-31
2024/01/26 06:10:52;;;;;;;3.63;1.65;;;;;;;;;;5015886;28;20468;-31
2024/01/26 06:13:20;;;;;;;3.90;1.70;;;;;;;;;;5017279;28;20447;-31
2024/01/26 06:15:46;;;;;;;5.50;1.50;;;;;;;;;;5016742;28;20040;-29
2024/01/26 06:18:12;;;;;;;6.80;1.60;;;;;;;;;;5016431;28;20519;-29
2024/01/26 06:20:39;;;;;;;2.83;1.50;;;;;;;;;;5016793;28;20137;-33
2024/01/26 06:23:05;;;;;;;1.25;1.15;;;;;;;;;;5016729;28;20040;-30
2024/01/26 06:25:32;;;;;;;3.15;2.10;;;;;;;;;;5016673;28;20026;-31
2024/01/26 06:27:59;;;;;;;4.15;1.75;;;;;;;;;;5015669;28;20057;-31
2024/01/26 06:30:25;;;;;;;3.95;1.90;;;;;;;;;;5016728;28;20034;-30
2024/01/26 06:32:51;;;;;;;3.63;1.30;;;;;;;;;;5016435;28;20028;-30
2024/01/26 06:35:17;;;;;;;2.97;1.20;;;;;;;;;;5016659;28;20026;-29
2024/01/26 06:37:44;;;;;;;4.32;1.55;;;;;;;;;;5016443;28;20033;-30
2024/01/26 06:40:10;;;;;;;2.00;1.45;;;;;;;;;;5015393;28;20028;-30
2024/01/26 06:42:40;;;;;;;5.07;1.65;;;;;;;;;;5016200;28;20109;-30
2024/01/26 06:45:09;;;;;;;3.45;1.90;;;;;;;;;;5016290;28;20326;-27
2024/01/26 06:47:35;;;;;;;4.25;2.10;;;;;;;;;;5015825;28;20034;-31
2024/01/26 06:50:01;;;;;;;4.53;1.40;;;;;;;;;;5016285;28;20030;-30
2024/01/26 06:52:27;;;;;;;4.03;1.70;;;;;;;;;;5016383;28;20052;-32
2024/01/26 06:54:53;;;;;;;1.92;1.50;;;;;;;;;;5016486;28;20022;-32
2024/01/26 06:57:19;;;;;;;1.63;1.30;;;;;;;;;;5016578;28;20083;-31
2024/01/26 06:59:46;;;;;;;3.00;1.38;;;;;;;;;;5015950;28;20356;-31
2024/01/26 07:02:12;;;;;;;1.75;1.33;;;;;;;;;;5015819;28;20022;-30
2024/01/26 07:04:38;;;;;;;3.67;1.40;;;;;;;;;;5015984;28;20341;-31
2024/01/26 07:07:04;;;;;;;2.05;1.42;;;;;;;;;;5016404;28;20030;-31
2024/01/26 07:09:30;;;;;;;3.05;1.40;;;;;;;;;;5015879;28;20021;-29
2024/01/26 07:11:59;;;;;;;1.25;1.15;;;;;;;;;;5015973;28;20385;-31
2024/01/26 07:14:25;;;;;;;3.90;1.73;;;;;;;;;;5015711;28;20057;-31
2024/01/26 07:16:52;;;;;;;3.80;1.40;;;;;;;;;;5015613;28;20364;-30
2024/01/26 07:19:18;;;;;;;2.40;1.50;;;;;;;;;;5015678;28;20101;-31
2024/01/26 07:21:44;;;;;;;2.50;1.50;;;;;;;;;;5015937;28;20097;-30
2024/01/26 07:24:10;;;;;;;3.47;1.30;;;;;;;;;;5014604;28;20488;-31
2024/01/26 07:26:37;;;;;;;1.60;1.50;;;;;;;;;;5015541;28;20034;-31
2024/01/26 07:29:04;;;;;;;3.25;1.02;;;;;;;;;;5013697;28;20049;-30
2024/01/26 07:31:30;;;;;;;1.52;1.17;;;;;;;;;;5015608;28;20026;-32
2024/01/26 07:33:56;;;;;;;1.40;1.25;;;;;;;;;;5014354;28;20172;-30
2024/01/26 07:36:22;;;;;;;1.65;1.52;;;;;;;;;;5015607;28;20365;-32
2024/01/26 07:38:49;;;;;;;1.42;1.30;;;;;;;;;;5015650;28;20026;-30
2024/01/26 07:41:15;;;;;;;2.40;1.65;;;;;;;;;;5015490;28;20477;-30
2024/01/26 07:43:41;;;;;;;4.53;1.60;;;;;;;;;;5014255;28;20117;-30
2024/01/26 07:46:07;;;;;;;2.45;1.38;;;;;;;;;;5015400;28;20029;-30
2024/01/26 07:48:33;;;;;;;2.05;1.10;;;;;;;;;;5015163;28;20500;-32
2024/01/26 07:50:59;;;;;;;4.22;1.40;;;;;;;;;;5015341;28;20048;-31
2024/01/26 07:53:25;;;;;;;9.93;1.80;;;;;;;;;;5015507;28;20038;-31
2024/01/26 07:55:51;;;;;;;2.67;1.20;;;;;;;;;;5015311;28;20112;-29
2024/01/26 07:58:18;;;;;;;1.60;1.33;;;;;;;;;;5014959;28;20083;-31
2024/01/26 08:00:44;;;;;;;2.80;1.63;;;;;;;;;;5015074;28;20038;-29
2024/01/26 08:03:11;;;;;;;3.42;1.40;;;;;;;;;;5014867;28;20041;-31
2024/01/26 08:05:37;;;;;;;4.40;1.40;;;;;;;;;;5014961;28;20059;-30
2024/01/26 08:08:04;;;;;;;5.25;1.60;;;;;;;;;;5015022;28;20036;-32
2024/01/26 08:10:30;;;;;;;4.70;1.45;;;;;;;;;;5015074;28;20337;-30
2024/01/26 08:12:56;;;;;;;3.92;1.50;;;;;;;;;;5014932;28;20034;-29
2024/01/26 08:15:22;;;;;;;3.13;1.58;;;;;;;;;;5015132;28;20088;-31
2024/01/26 08:17:48;;;;;;;1.42;1.27;;;;;;;;;;5015298;28;20021;-30
2024/01/26 08:20:15;;;;;;;3.63;1.13;;;;;;;;;;5015365;28;20033;-31
2024/01/26 08:22:43;;;;;;;3.33;1.50;;;;;;;;;;5015048;28;20026;-29
2024/01/26 08:25:10;;;;;;;2.45;1.27;;;;;;;;;;5015020;28;20334;-31
2024/01/26 08:27:36;;;;;;;4.50;2.28;;;;;;;;;;5014735;28;20400;-30
2024/01/26 08:30:03;;;;;;;2.53;1.77;;;;;;;;;;5014645;28;20356;-31
2024/01/26 08:32:29;;;;;;;4.68;1.38;;;;;;;;;;5014523;28;20018;-30
2024/01/26 08:34:56;;;;;;;1.60;1.48;;;;;;;;;;5014522;28;20061;-32
2024/01/26 08:37:23;;;;;;;3.22;1.17;;;;;;;;;;5014619;28;20107;-30
2024/01/26 08:39:49;;;;;;;1.33;1.23;;;;;;;;;;5014741;28;20101;-31
2024/01/26 08:42:15;;;;;;;4.78;1.80;;;;;;;;;;5018420;28;20026;-31
2024/01/26 08:44:41;;;;;;;1.50;1.20;;;;;;;;;;5018572;28;20497;-31
2024/01/26 08:47:08;;;;;;;1.40;1.30;;;;;;;;;;5018555;28;20052;-31
2024/01/26 08:49:34;;;;;;;2.80;1.67;;;;;;;;;;5018762;28;20053;-32
2024/01/26 08:52:01;;;;;;;1.98;1.45;;;;;;;;;;5018414;28;20022;-31
2024/01/26 08:54:27;;;;;;;2.90;1.30;;;;;;;;;;5018641;28;20372;-29
2024/01/26 08:56:53;;;;;;;3.38;1.33;;;;;;;;;;5018647;28;20037;-29
2024/01/26 08:59:20;;;;;;;2.17;1.50;;;;;;;;;;5018190;28;20448;-31
2024/01/26 09:01:46;;;;;;;1.98;1.10;;;;;;;;;;5018008;28;20438;-32
2024/01/26 09:04:12;;;;;;;2.85;1.35;;;;;;;;;;5017103;28;20117;-33
2024/01/26 09:06:39;;;;;;;2.28;1.73;;;;;;;;;;5018113;28;20113;-28
2024/01/26 09:09:06;;;;;;;4.75;1.80;;;;;;;;;;5017969;28;20030;-30
2024/01/26 09:11:32;;;;;;;3.60;1.63;;;;;;;;;;5017937;28;20092;-30
2024/01/26 09:13:59;;;;;;;4.22;1.45;;;;;;;;;;5017790;28;20030;-32
2024/01/26 09:16:25;;;;;;;3.03;1.38;;;;;;;;;;5017719;28;20040;-31
2024/01/26 09:18:51;;;;;;;6.13;1.55;;;;;;;;;;5017673;28;20034;-30
2024/01/26 09:21:18;;;;;;;4.18;1.17;;;;;;;;;;5018051;28;20079;-33
2024/01/26 09:23:44;;;;;;;1.98;1.45;;;;;;;;;;5017711;28;20493;-32
2024/01/26 09:26:11;;;;;;;4.45;1.60;;;;;;;;;;5017858;28;20148;-32
2024/01/26 09:28:37;;;;;;;3.63;2.35;;;;;;;;;;5017540;28;20030;-33
2024/01/26 09:31:03;;;;;;;6.13;1.42;;;;;;;;;;5016625;28;20457;-28
2024/01/26 09:33:30;;;;;;;9.57;1.63;;;;;;;;;;5017805;28;20076;-31
2024/01/26 09:35:56;;;;;;;6.13;2.35;;;;;;;;;;5017346;28;20040;-30
2024/01/26 09:38:23;;;;;;;3.22;1.33;;;;;;;;;;5016530;28;20480;-33
2024/01/26 09:40:49;;;;;;;2.15;1.40;;;;;;;;;;5017513;28;20397;-32
2024/01/26 09:43:16;;;;;;;6.03;2.35;;;;;;;;;;5017400;28;20053;-34
2024/01/26 09:45:42;;;;;;;3.03;1.40;;;;;;;;;;5017602;28;20422;-31
2024/01/26 09:48:09;;;;;;;6.15;1.60;;;;;;;;;;5017443;28;20419;-34
2024/01/26 09:50:36;;;;;;;5.40;1.38;;;;;;;;;;5017823;28;20076;-31
2024/01/26 09:53:05;;;;;;;4.32;1.48;;;;;;;;;;5016244;28;20086;-31
2024/01/26 09:55:32;;;;;;;3.45;1.30;;;;;;;;;;5017318;28;20025;-32
2024/01/26 09:57:58;;;;;;;3.35;1.27;;;;;;;;;;5017121;28;20018;-31
2024/01/26 10:00:24;;;;;;;2.15;1.05;;;;;;;;;;5017369;28;20109;-33
2024/01/26 10:02:51;;;;;;;1.60;1.20;;;;;;;;;;5016741;28;20117;-31
2024/01/26 10:05:18;;;;;;;8.60;1.00;;;;;;;;;;5017003;28;20018;-31
2024/01/26 10:07:45;;;;;;;1.00;0.90;;;;;;;;;;5017219;28;20045;-30
2024/01/26 10:10:12;;;;;;;2.15;1.95;;;;;;;;;;5017234;28;20390;-31
2024/01/26 10:12:38;;;;;;;2.38;1.77;;;;;;;;;;5015870;28;20434;-33
2024/01/26 10:15:09;;;;;;;2.33;1.27;;;;;;;;;;5016763;28;20453;-31
2024/01/26 10:17:35;;;;;;;1.35;1.23;;;;;;;;;;5016837;28;20036;-29
2024/01/26 10:20:18;;;;;;;3.55;1.20;;;;;;;;;;5016654;28;20061;-29
2024/01/26 10:22:44;;;;;;;2.38;1.30;;;;;;;;;;5016926;28;20030;-31
2024/01/26 10:25:11;;;;;;;5.05;1.50;;;;;;;;;;5016615;28;20025;-30
2024/01/26 10:27:37;;;;;;;1.15;1.00;;;;;;;;;;5016754;28;20361;-32
2024/01/26 10:30:04;;;;;;;2.00;0.98;;;;;;;;;;5016686;28;20045;-33
2024/01/26 10:32:32;;;;;;;1.50;1.40;;;;;;;;;;5016201;28;20034;-29
2024/01/26 10:34:59;;;;;;;3.22;1.40;;;;;;;;;;5016279;28;20026;-30
2024/01/26 10:37:28;;;;;;;4.20;1.40;;;;;;;;;;5016461;28;20342;-31
2024/01/26 10:39:58;;;;;;;2.40;1.45;;;;;;;;;;5016390;28;20030;-26
2024/01/26 10:42:26;;;;;;;4.93;1.30;;;;;;;;;;5015978;28;20449;-31
2024/01/26 10:44:52;;;;;;;1.55;1.23;;;;;;;;;;5015999;28;20018;-33
2024/01/26 10:47:19;;;;;;;1.33;1.23;;;;;;;;;;5016113;28;20353;-31
2024/01/26 10:49:49;;;;;;;3.55;1.20;;;;;;;;;;5016159;28;20057;-28
2024/01/26 10:52:19;;;;;;;5.93;1.45;;;;;;;;;;5015893;28;20076;-32
2024/01/26 10:54:48;;;;;;;3.75;1.45;;;;;;;;;;5015625;28;20473;-32
2024/01/26 10:57:15;;;;;;;2.45;1.20;;;;;;;;;;5015706;28;20036;-31
2024/01/26 10:59:43;;;;;;;1.25;1.13;;;;;;;;;;5015754;28;20026;-30
2024/01/26 11:02:15;;;;;;;2.38;1.10;;;;;;;;;;5015566;28;20523;-31
2024/01/26 11:04:42;;;;;;;3.90;1.42;;;;;;;;;;5014793;28;20124;-32
2024/01/26 11:07:09;;;;;;;3.10;1.13;;;;;;;;;;5014556;28;20483;-31
2024/01/26 11:09:38;;;;;;;3.13;1.25;;;;;;;;;;5015443;28;20041;-30
2024/01/26 11:12:08;;;;;;;3.85;1.40;;;;;;;;;;5015783;28;20030;-31
2024/01/26 11:14:34;;;;;;;1.63;1.15;;;;;;;;;;5016106;28;20080;-29
2024/01/26 11:17:10;;;;;;;4.30;1.25;;;;;;;;;;5015580;28;20057;-32
2024/01/26 11:19:36;;;;;;;3.60;1.27;;;;;;;;;;5015447;28;20022;-31
2024/01/26 11:22:04;;;;;;;3.88;1.75;;;;;;;;;;5015289;28;20029;-30
2024/01/26 11:24:32;;;;;;;7.32;2.05;;;;;;;;;;5015329;28;20033;-31
2024/01/26 11:27:00;;;;;;;4.93;1.67;;;;;;;;;;5015277;28;20030;-31
2024/01/26 11:29:35;;;;;;;5.10;1.50;;;;;;;;;;5015459;28;20349;-31
2024/01/26 11:32:02;;;;;;;4.97;1.98;;;;;;;;;;5015178;28;20437;-32
2024/01/26 11:34:28;;;;;;;3.70;1.20;;;;;;;;;;5015573;28;20376;-29
2024/01/26 11:37:14;;;;;;;7.53;1.60;;;;;;;;;;5015604;28;20053;-30
2024/01/26 11:39:41;;;;;;;1.95;1.58;;;;;;;;;;5015614;28;20018;-31
2024/01/26 11:42:10;;;;;;;4.03;1.30;;;;;;;;;;5015516;28;20392;-30
2024/01/26 11:44:40;;;;;;;1.30;1.10;;;;;;;;;;5015166;28;20049;-31
2024/01/26 11:47:10;;;;;;;3.17;1.00;;;;;;;;;;5015713;28;20033;-31
2024/01/26 11:49:39;;;;;;;5.90;1.55;;;;;;;;;;5015129;28;20026;-32
2024/01/26 11:52:05;;;;;;;4.10;1.30;;;;;;;;;;5014976;28;20040;-32
2024/01/26 11:54:35;;;;;;;2.63;1.40;;;;;;;;;;5015355;28;20405;-32
2024/01/26 11:57:02;;;;;;;3.30;1.60;;;;;;;;;;5015186;28;20034;-32
2024/01/26 11:59:28;;;;;;;1.85;1.33;;;;;;;;;;5014719;28;20105;-32
2024/01/26 12:01:55;;;;;;;1.83;1.17;;;;;;;;;;5014646;28;20034;-30
2024/01/26 12:04:22;;;;;;;3.92;1.27;;;;;;;;;;5014687;28;20038;-31
2024/01/26 12:06:48;;;;;;;2.67;1.60;;;;;;;;;;5014798;28;20033;-31
2024/01/26 12:09:15;;;;;;;3.72;1.38;;;;;;;;;;5013842;28;20559;-31
2024/01/26 12:11:41;;;;;;;4.93;1.83;;;;;;;;;;5013846;28;20022;-30
2024/01/26 12:14:07;;;;;;;3.42;1.40;;;;;;;;;;5014723;28;20040;-29
2024/01/26 12:16:33;;;;;;;4.07;1.85;;;;;;;;;;5014265;28;20026;-31
2024/01/26 12:19:01;;;;;;;9.55;1.92;;;;;;;;;;5015167;28;20349;-30
2024/01/26 12:21:30;;;;;;;9.82;1.75;;;;;;;;;;5014865;28;20332;-31
2024/01/26 12:23:56;;;;;;;5.70;1.42;;;;;;;;;;5014764;28;20028;-31
2024/01/26 12:26:22;;;;;;;2.17;1.40;;;;;;;;;;5014784;28;20352;-32
2024/01/26 12:28:48;;;;;;;8.57;1.65;;;;;;;;;;5014824;28;20507;-30
2024/01/26 12:31:16;;;;;;;4.47;1.98;;;;;;;;;;5014839;28;20049;-31
2024/01/26 12:33:45;;;;;;;6.72;1.70;;;;;;;;;;5014914;28;20041;-29
2024/01/26 12:36:13;;;;;;;6.20;2.05;;;;;;;;;;5014559;28;20032;-31
2024/01/26 12:38:39;;;;;;;10.50;2.30;;;;;;;;;;5014591;28;20097;-32
2024/01/26 12:41:05;;;;;;;8.73;1.65;;;;;;;;;;5014535;28;20034;-37
2024/01/26 12:43:33;;;;;;;18.95;2.22;;;;;;;;;;5013580;28;20057;-32
2024/01/26 12:46:00;;;;;;;7.35;3.55;;;;;;;;;;5014425;28;20049;-30
2024/01/26 12:48:26;;;;;;;20.10;3.03;;;;;;;;;;5015005;28;20037;-30
2024/01/26 12:50:52;;;;;;;7.50;1.98;;;;;;;;;;5014446;28;20029;-33
2024/01/26 12:53:18;;;;;;;9.35;2.53;;;;;;;;;;5013744;28;20157;-29
2024/01/26 12:55:45;;;;;;;6.28;2.03;;;;;;;;;;5014534;28;20361;-29
2024/01/26 12:58:11;;;;;;;1.25;1.15;;;;;;;;;;5014383;28;20032;-31
2024/01/26 13:00:38;;;;;;;3.97;1.30;;;;;;;;;;5014620;28;20022;-33
2024/01/26 13:03:05;;;;;;;3.13;1.35;;;;;;;;;;5014286;28;20625;-31
2024/01/26 13:05:32;;;;;;;4.40;1.58;;;;;;;;;;5014708;28;20492;-31
2024/01/26 13:07:58;;;;;;;2.08;1.88;;;;;;;;;;5014558;28;20045;-30
2024/01/26 13:10:24;;;;;;;2.88;1.35;;;;;;;;;;5014320;28;20026;-30
2024/01/26 13:12:50;;;;;;;3.72;1.38;;;;;;;;;;5013685;28;20030;-30
2024/01/26 13:15:18;;;;;;;2.78;1.17;;;;;;;;;;5014124;28;20030;-31
2024/01/26 13:17:44;;;;;;;8.70;1.40;;;;;;;;;;5014498;28;20025;-34
2024/01/26 13:20:11;;;;;;;4.88;1.58;;;;;;;;;;5014171;28;20022;-28
2024/01/26 13:22:37;;;;;;;3.58;1.00;;;;;;;;;;5014090;28;20014;-30
2024/01/26 13:25:04;;;;;;;2.78;1.30;;;;;;;;;;5014425;28;20084;-31
2024/01/26 13:27:30;;;;;;;4.47;1.60;;;;;;;;;;5015533;28;20508;-30
2024/01/26 13:29:56;;;;;;;2.67;1.83;;;;;;;;;;5016764;28;20528;-30
2024/01/26 13:32:22;;;;;;;1.50;1.40;;;;;;;;;;5017492;28;20021;-30
2024/01/26 13:34:48;;;;;;;3.28;1.58;;;;;;;;;;5017472;28;20032;-30
2024/01/26 13:37:15;;;;;;;2.13;1.33;;;;;;;;;;5017817;28;20026;-30
2024/01/26 13:39:41;;;;;;;5.95;1.40;;;;;;;;;;5017799;28;20159;-31
2024/01/26 13:42:07;;;;;;;2.08;1.25;;;;;;;;;;5017326;28;20033;-32
2024/01/26 13:44:33;;;;;;;2.17;1.30;;;;;;;;;;5017649;28;20029;-29
2024/01/26 13:47:00;;;;;;;3.67;1.30;;;;;;;;;;5017315;28;20053;-30
2024/01/26 13:49:26;;;;;;;8.23;1.45;;;;;;;;;;5017244;28;20041;-30
2024/01/26 13:51:52;;;;;;;2.33;1.30;;;;;;;;;;5017219;28;20472;-32
2024/01/26 13:54:18;;;;;;;3.13;1.25;;;;;;;;;;5017255;28;20468;-31
2024/01/26 13:56:53;;;;;;;6.30;1.95;;;;;;;;;;5017127;28;20105;-30
2024/01/26 13:59:19;;;;;;;3.78;1.55;;;;;;;;;;5017124;28;20372;-33
2024/01/26 14:01:46;;;;;;;6.18;1.50;;;;;;;;;;5017259;28;20097;-31
2024/01/26 14:04:12;;;;;;;3.97;1.70;;;;;;;;;;5016932;28;20428;-32
2024/01/26 14:06:38;;;;;;;12.15;2.03;;;;;;;;;;5016947;28;20030;-31
2024/01/26 14:09:05;;;;;;;7.78;1.98;;;;;;;;;;5015853;28;20030;-31
2024/01/26 14:11:33;;;;;;;2.60;1.50;;;;;;;;;;5016822;28;20026;-29
2024/01/26 14:13:59;;;;;;;5.43;1.77;;;;;;;;;;5017032;28;20029;-32
2024/01/26 14:16:27;;;;;;;2.55;1.63;;;;;;;;;;5017034;28;20369;-28
2024/01/26 14:18:53;;;;;;;8.85;1.52;;;;;;;;;;5016869;28;20018;-32
2024/01/26 14:21:20;;;;;;;8.27;2.25;;;;;;;;;;5016883;28;20052;-31
2024/01/26 14:23:46;;;;;;;2.42;1.80;;;;;;;;;;5016342;28;20033;-31
2024/01/26 14:26:12;;;;;;;3.63;1.45;;;;;;;;;;5016830;28;20041;-33
2024/01/26 14:28:39;;;;;;;2.63;1.65;;;;;;;;;;5016926;28;20100;-30
2024/01/26 14:31:05;;;;;;;9.43;1.63;;;;;;;;;;5016503;28;20453;-32
2024/01/26 14:33:31;;;;;;;3.70;1.70;;;;;;;;;;5016391;28;20033;-31
2024/01/26 14:35:58;;;;;;;6.50;1.80;;;;;;;;;;5016640;28;20050;-30
2024/01/26 14:38:24;;;;;;;3.45;1.45;;;;;;;;;;5015069;28;20022;-30
2024/01/26 14:40:51;;;;;;;4.47;1.90;;;;;;;;;;5015350;28;20457;-31